Time;durP1;ratioP1;P1;durP2;ratioP2;P2;SDS_P1;SDS_P2;PMS_P1;PMS_P2;Temp;Humidity;BMP_temperature;BMP_pressure;BME280_temperature;BME280_humidity;BME280_pressure;Samples;Min_cycle;Max_cycle;Signal;HPM_P1;HPM_P2
2021/09/14 00:00:41;;;;;;;24.95;13.65;;;;;;;15.62;86.10;100980.95;1952979;73;21121;-70
2021/09/14 00:03:10;;;;;;;25.27;11.75;;;;;;;15.61;85.86;100979.26;1952966;73;21100;-69
2021/09/14 00:05:39;;;;;;;17.12;10.80;;;;;;;15.59;85.72;100975.84;1952906;73;21035;-69
2021/09/14 00:08:07;;;;;;;34.33;18.07;;;;;;;15.55;85.80;100983.59;1952915;73;21059;-69
2021/09/14 00:10:36;;;;;;;38.35;24.27;;;;;;;15.49;86.07;100975.95;1952808;73;21031;-71
2021/09/14 00:13:07;;;;;;;30.62;16.55;;;;;;;15.45;86.25;100975.27;1952923;73;21097;-70
2021/09/14 00:15:36;;;;;;;25.48;13.83;;;;;;;15.38;86.95;100981.41;1952942;73;21133;-70
2021/09/14 00:18:05;;;;;;;25.12;15.88;;;;;;;15.34;87.19;100979.84;1952945;73;21124;-70
2021/09/14 00:20:34;;;;;;;19.42;10.98;;;;;;;15.32;87.33;100985.70;1952996;73;21476;-70
2021/09/14 00:23:03;;;;;;;24.57;11.73;;;;;;;15.30;87.26;100988.91;1952962;73;21453;-70
2021/09/14 00:25:33;;;;;;;24.98;13.03;;;;;;;15.29;87.15;100996.51;1952931;73;21075;-70
2021/09/14 00:28:02;;;;;;;34.15;22.93;;;;;;;15.30;86.98;100991.56;1952890;73;21425;-70
2021/09/14 00:30:31;;;;;;;44.75;30.52;;;;;;;15.32;87.10;100983.53;1953082;73;21034;-70
2021/09/14 00:32:59;;;;;;;47.75;28.07;;;;;;;15.32;86.93;100983.05;1952958;73;21047;-71
2021/09/14 00:35:29;;;;;;;33.23;19.10;;;;;;;15.33;86.64;100983.45;1952853;73;21039;-71
2021/09/14 00:37:58;;;;;;;23.42;11.03;;;;;;;15.31;86.61;100982.69;1952931;73;21457;-71
2021/09/14 00:40:27;;;;;;;15.75;10.20;;;;;;;15.28;86.72;100984.16;1952973;73;21113;-71
2021/09/14 00:42:55;;;;;;;28.23;18.70;;;;;;;15.21;86.67;100984.96;1952942;73;21047;-71
2021/09/14 00:45:24;;;;;;;36.10;22.17;;;;;;;15.20;86.45;100983.74;1952919;73;21469;-70
2021/09/14 00:47:53;;;;;;;29.32;16.82;;;;;;;15.18;86.36;100981.17;1952854;73;21071;-70
2021/09/14 00:50:22;;;;;;;28.40;17.77;;;;;;;15.16;86.37;100988.80;1952780;73;21117;-70
2021/09/14 00:52:51;;;;;;;19.55;11.90;;;;;;;15.12;86.76;100989.44;1952961;73;21120;-69
2021/09/14 00:55:20;;;;;;;18.35;11.15;;;;;;;15.09;86.83;100991.40;1952948;73;21051;-70
2021/09/14 00:57:50;;;;;;;29.82;18.17;;;;;;;15.06;86.58;100989.30;1953202;73;21437;-69
2021/09/14 01:00:18;;;;;;;32.65;18.25;;;;;;;15.01;86.97;100987.39;1952994;73;21132;-69
2021/09/14 01:02:47;;;;;;;27.37;17.00;;;;;;;14.94;87.08;100988.66;1952817;73;21027;-71
2021/09/14 01:05:16;;;;;;;27.30;16.70;;;;;;;14.89;87.17;100988.03;1952925;73;21007;-68
2021/09/14 01:07:47;;;;;;;28.57;18.70;;;;;;;14.90;86.97;100987.56;1952922;73;21446;-69
2021/09/14 01:10:15;;;;;;;26.55;16.40;;;;;;;14.89;86.79;100993.34;1953034;73;21011;-69
2021/09/14 01:12:45;;;;;;;25.20;14.73;;;;;;;14.87;87.01;100985.94;1953153;73;21043;-68
2021/09/14 01:15:14;;;;;;;24.07;10.60;;;;;;;14.86;87.40;100988.19;1952819;73;21544;-70
2021/09/14 01:17:43;;;;;;;21.35;12.35;;;;;;;14.82;87.28;100994.59;1953043;73;21047;-69
2021/09/14 01:20:12;;;;;;;26.73;13.32;;;;;;;14.80;87.25;100993.83;1953025;73;21027;-69
2021/09/14 01:22:41;;;;;;;32.73;19.02;;;;;;;14.76;87.21;101000.23;1953024;73;21084;-68
2021/09/14 01:25:24;;;;;;;33.88;21.15;;;;;;;14.73;87.10;100997.25;1952883;73;21007;-69
2021/09/14 01:27:56;;;;;;;32.95;19.55;;;;;;;14.71;87.31;100995.63;1952525;73;21087;-70
2021/09/14 01:30:27;;;;;;;17.77;10.75;;;;;;;14.65;87.37;100996.33;1951845;73;21083;-69
2021/09/14 01:32:56;;;;;;;17.85;9.45;;;;;;;14.62;87.35;101001.78;1952883;73;21116;-69
2021/09/14 01:35:29;;;;;;;20.00;9.93;;;;;;;14.61;87.16;101002.73;1952571;73;21556;-70
2021/09/14 01:38:00;;;;;;;18.00;8.87;;;;;;;14.60;87.06;101002.34;1961914;73;21152;-70
2021/09/14 01:40:31;;;;;;;16.62;8.85;;;;;;;14.60;86.97;101011.61;1962149;73;21787;-70
2021/09/14 01:43:02;;;;;;;16.05;9.20;;;;;;;14.60;86.92;101002.81;1962000;73;21062;-71
2021/09/14 01:45:31;;;;;;;14.03;8.78;;;;;;;14.58;86.87;101006.86;1962880;73;21031;-70
2021/09/14 01:48:00;;;;;;;12.85;7.97;;;;;;;14.56;86.84;101005.20;1963055;73;21120;-70
2021/09/14 01:50:29;;;;;;;14.73;8.13;;;;;;;14.55;86.72;101007.01;1962933;73;21124;-70
2021/09/14 01:53:01;;;;;;;15.23;9.28;;;;;;;14.54;86.72;101013.23;1962749;73;21725;-71
2021/09/14 01:55:31;;;;;;;15.98;8.63;;;;;;;14.54;86.65;101011.91;1962695;73;21035;-70
2021/09/14 01:58:00;;;;;;;14.00;8.85;;;;;;;14.53;86.83;101000.91;1962952;73;21050;-70
2021/09/14 02:00:32;;;;;;;15.65;9.03;;;;;;;14.54;86.90;101005.28;1963013;73;21449;-70
2021/09/14 02:03:18;;;;;;;18.48;10.40;;;;;;;14.56;86.87;101007.38;1961926;73;21175;-70
2021/09/14 02:39:15;;;;;;;17.20;10.88;;;;;;;14.40;87.87;101021.02;1962639;73;21043;-71
2021/09/14 02:44:29;;;;;;;18.73;8.30;;;;;;;14.33;87.81;101028.88;1962894;73;21039;-72
2021/09/14 03:00:45;;;;;;;22.75;9.23;;;;;;;14.23;87.96;101029.81;1962827;73;21095;-67
2021/09/14 03:03:14;;;;;;;18.80;9.65;;;;;;;14.22;88.10;101028.97;1962848;73;21031;-70
2021/09/14 03:05:43;;;;;;;15.13;9.63;;;;;;;14.22;88.24;101031.61;1962788;73;21496;-72
2021/09/14 03:08:12;;;;;;;21.33;10.20;;;;;;;14.21;88.17;101035.66;1962910;73;21622;-73
2021/09/14 03:10:41;;;;;;;19.25;10.23;;;;;;;14.21;88.11;101038.30;1962817;73;21104;-72
2021/09/14 03:13:10;;;;;;;17.25;8.98;;;;;;;14.19;88.07;101041.02;1962937;73;21058;-71
2021/09/14 03:15:39;;;;;;;18.90;9.53;;;;;;;14.17;87.90;101045.55;1962946;73;21002;-72
2021/09/14 03:18:07;;;;;;;16.07;9.98;;;;;;;14.13;88.03;101046.63;1962917;73;21113;-70
2021/09/14 03:20:36;;;;;;;17.65;9.83;;;;;;;14.11;87.94;101059.09;1962852;73;21602;-70
2021/09/14 03:23:06;;;;;;;20.43;10.40;;;;;;;14.08;87.80;101059.23;1962948;73;21116;-71
2021/09/14 03:25:35;;;;;;;22.30;11.00;;;;;;;14.06;88.00;101058.45;1962951;73;21074;-69
2021/09/14 03:28:05;;;;;;;19.62;10.32;;;;;;;14.05;88.14;101059.38;1963053;73;21509;-69
2021/09/14 03:30:34;;;;;;;15.93;8.75;;;;;;;14.04;88.22;101049.73;1963073;73;21022;-70
2021/09/14 03:33:03;;;;;;;20.75;9.33;;;;;;;14.03;88.07;101059.91;1962875;73;21453;-69
2021/09/14 03:35:33;;;;;;;15.03;9.83;;;;;;;14.01;87.95;101056.48;1963020;73;21120;-69
2021/09/14 03:38:01;;;;;;;17.57;10.50;;;;;;;13.99;88.08;101055.70;1959325;73;21070;-68
2021/09/14 03:40:30;;;;;;;23.40;10.48;;;;;;;14.03;88.23;101051.97;1952968;73;21063;-67
2021/09/14 03:42:59;;;;;;;22.30;11.18;;;;;;;14.06;88.18;101054.00;1952993;73;21054;-65
2021/09/14 03:45:28;;;;;;;18.70;10.18;;;;;;;14.09;88.15;101054.31;1952833;73;21124;-65
2021/09/14 03:47:57;;;;;;;19.12;9.78;;;;;;;14.13;87.94;101058.99;1952900;73;21035;-64
2021/09/14 03:50:27;;;;;;;18.12;8.95;;;;;;;14.21;87.87;101062.98;1953014;73;21050;-64
2021/09/14 03:52:56;;;;;;;17.00;9.88;;;;;;;14.43;87.77;101055.31;1952934;73;21548;-64
2021/09/14 03:55:24;;;;;;;19.12;10.00;;;;;;;14.69;87.47;101062.45;1952921;73;21043;-64
2021/09/14 03:57:53;;;;;;;20.72;9.55;;;;;;;14.92;87.21;101054.17;1952846;73;21054;-64
2021/09/14 04:00:24;;;;;;;17.17;9.03;;;;;;;15.15;86.73;101058.72;1953049;73;21121;-65
2021/09/14 04:03:07;;;;;;;17.10;8.70;;;;;;;15.42;86.58;101063.87;1945862;73;21068;-64
2021/09/14 04:05:38;;;;;;;19.52;8.08;;;;;;;15.65;86.18;101064.41;1950831;73;21062;-64
2021/09/14 04:10:45;;;;;;;15.08;7.40;;;;;;;15.96;85.49;101074.69;1952690;73;21219;-64
2021/09/14 04:13:15;;;;;;;14.80;7.17;;;;;;;16.01;85.27;101075.29;1952354;73;21567;-64
2021/09/14 04:15:44;;;;;;;19.12;8.80;;;;;;;16.09;84.55;101074.37;1953069;73;21050;-64
2021/09/14 04:18:13;;;;;;;14.73;7.80;;;;;;;16.23;83.52;101062.97;1952942;73;21480;-65
2021/09/14 04:20:42;;;;;;;12.50;6.83;;;;;;;16.50;83.02;101067.13;1952973;73;21108;-65
2021/09/14 04:23:11;;;;;;;13.05;6.75;;;;;;;16.73;81.83;101072.91;1952895;73;21059;-65
2021/09/14 04:25:40;;;;;;;12.90;6.05;;;;;;;16.95;81.39;101072.03;1952946;73;21035;-65
2021/09/14 04:28:09;;;;;;;11.78;6.28;;;;;;;17.20;81.09;101070.52;1952917;73;21521;-64
2021/09/14 04:30:39;;;;;;;14.45;6.97;;;;;;;17.47;80.59;101075.09;1952975;73;21486;-64
2021/09/14 04:33:08;;;;;;;14.15;6.50;;;;;;;17.73;80.13;101082.28;1952965;73;21055;-64
2021/09/14 04:35:37;;;;;;;14.65;7.95;;;;;;;17.94;78.98;101079.22;1953048;73;21461;-64
2021/09/14 04:38:06;;;;;;;11.60;6.47;;;;;;;17.97;77.78;101078.19;1952993;73;21501;-64
2021/09/14 04:40:36;;;;;;;15.63;6.67;;;;;;;18.09;77.73;101080.03;1953123;73;21035;-64
2021/09/14 04:43:05;;;;;;;9.33;5.53;;;;;;;18.26;77.12;101082.91;1952986;73;21098;-64
2021/09/14 04:45:34;;;;;;;10.63;6.83;;;;;;;18.62;77.48;101081.44;1953025;73;21067;-64
2021/09/14 04:48:05;;;;;;;11.68;5.42;;;;;;;18.99;77.44;101077.62;1952793;73;21128;-64
2021/09/14 04:50:34;;;;;;;11.55;5.60;;;;;;;19.39;76.80;101082.84;1953133;73;21020;-64
2021/09/14 04:53:03;;;;;;;11.85;4.75;;;;;;;19.66;75.61;101076.88;1953129;73;21023;-64
2021/09/14 04:55:33;;;;;;;12.03;5.85;;;;;;;19.96;75.21;101075.63;1953059;73;21055;-64
2021/09/14 04:58:02;;;;;;;12.30;5.20;;;;;;;20.32;74.25;101072.52;1953058;73;21019;-65
2021/09/14 05:00:30;;;;;;;10.10;7.08;;;;;;;20.65;73.50;101070.98;1952839;73;20999;-65
2021/09/14 05:03:00;;;;;;;12.90;6.75;;;;;;;20.91;72.13;101068.13;1953258;73;21458;-65
2021/09/14 05:05:29;;;;;;;13.25;6.08;;;;;;;21.13;71.06;101076.17;1952977;73;21036;-64
2021/09/14 05:07:58;;;;;;;11.18;5.05;;;;;;;21.28;69.71;101074.12;1952933;73;21109;-64
2021/09/14 05:10:29;;;;;;;13.50;5.50;;;;;;;21.43;69.43;101076.56;1952766;73;21079;-64
2021/09/14 05:12:58;;;;;;;14.15;6.10;;;;;;;21.64;68.66;101079.40;1952806;73;21027;-65
2021/09/14 05:15:27;;;;;;;12.75;5.28;;;;;;;21.77;67.34;101079.61;1953027;73;21027;-64
2021/09/14 05:17:57;;;;;;;12.03;6.53;;;;;;;22.03;67.58;101083.83;1952826;73;21071;-64
2021/09/14 05:20:30;;;;;;;19.87;11.55;;;;;;;22.40;67.07;101083.50;1951216;73;21071;-64
2021/09/14 05:23:21;;;;;;;19.82;12.18;;;;;;;22.72;66.00;101083.45;1952952;73;21120;-65
2021/09/14 05:25:46;;;;;;;16.10;8.08;;;;;;;23.03;65.48;101084.35;1952031;73;21011;-64
2021/09/14 05:28:15;;;;;;;13.58;6.80;;;;;;;23.39;64.35;101082.17;1953000;73;21008;-64
2021/09/14 05:30:46;;;;;;;11.88;7.42;;;;;;;23.71;63.70;101077.12;1952906;73;21027;-64
2021/09/14 05:33:15;;;;;;;17.80;7.95;;;;;;;23.94;62.69;101078.26;1951855;73;21128;-64
2021/09/14 05:35:50;;;;;;;11.22;7.62;;;;;;;24.31;62.43;101081.63;1953006;73;21015;-64
2021/09/14 05:38:22;;;;;;;14.28;4.78;;;;;;;24.64;61.78;101077.20;1953111;73;21133;-64
2021/09/14 05:40:54;;;;;;;11.78;4.83;;;;;;;24.94;60.85;101073.12;1947717;73;21165;-65
2021/09/14 05:43:27;;;;;;;13.05;4.30;;;;;;;25.09;60.18;101077.03;1947085;74;21088;-65
2021/09/14 05:45:57;;;;;;;10.18;4.40;;;;;;;25.23;59.06;101076.60;1947314;74;21136;-65
2021/09/14 05:48:30;;;;;;;9.65;4.10;;;;;;;25.30;58.46;101072.80;1946912;74;21603;-65
2021/09/14 05:50:59;;;;;;;9.53;4.53;;;;;;;25.38;57.58;101067.53;1947263;74;21177;-64
2021/09/14 05:53:29;;;;;;;8.05;4.08;;;;;;;25.43;57.71;101066.59;1947360;74;21489;-65
2021/09/14 05:55:59;;;;;;;13.43;5.05;;;;;;;25.73;57.69;101068.63;1947328;74;21054;-65
2021/09/14 05:58:31;;;;;;;14.07;4.40;;;;;;;26.06;56.95;101074.42;1947038;74;21075;-65
2021/09/14 06:01:00;;;;;;;9.03;3.87;;;;;;;26.38;55.85;101071.69;1947204;74;21043;-65
2021/09/14 06:03:30;;;;;;;16.40;4.95;;;;;;;26.70;55.39;101071.63;1947305;74;21465;-65
2021/09/14 06:06:00;;;;;;;10.68;4.45;;;;;;;27.00;54.46;101072.16;1947508;74;21003;-64
2021/09/14 06:08:29;;;;;;;7.20;3.55;;;;;;;27.32;53.81;101064.28;1947295;74;21047;-64
2021/09/14 06:10:58;;;;;;;8.60;3.40;;;;;;;27.58;53.19;101068.78;1947294;74;21141;-65
2021/09/14 06:13:27;;;;;;;9.58;3.40;;;;;;;28.00;52.77;101076.05;1947184;74;21043;-65
2021/09/14 06:15:55;;;;;;;6.08;3.00;;;;;;;28.36;51.84;101077.09;1947403;74;21136;-65
2021/09/14 06:18:26;;;;;;;5.95;2.77;;;;;;;28.56;51.43;101079.52;1947265;74;21086;-65
2021/09/14 06:20:55;;;;;;;7.37;3.15;;;;;;;28.93;50.74;101073.53;1947351;74;21051;-65
2021/09/14 06:23:25;;;;;;;6.28;2.77;;;;;;;29.34;49.58;101082.11;1947298;74;21112;-65
2021/09/14 06:25:54;;;;;;;8.73;3.77;;;;;;;29.62;47.95;101081.13;1947203;74;21051;-66
2021/09/14 06:28:23;;;;;;;7.45;3.10;;;;;;;29.82;47.57;101082.93;1947257;74;21844;-65
2021/09/14 06:30:52;;;;;;;9.68;4.05;;;;;;;29.96;46.44;101083.53;1914840;74;21450;-65
2021/09/14 06:33:23;;;;;;;11.00;3.83;;;;;;;29.97;46.36;101085.73;1946911;74;21162;-65
2021/09/14 06:35:54;;;;;;;8.18;3.60;;;;;;;30.12;45.64;101088.03;1947315;74;21031;-65
2021/09/14 06:38:24;;;;;;;14.00;4.45;;;;;;;30.28;45.74;101088.41;1945254;74;21091;-65
2021/09/14 06:40:54;;;;;;;13.93;3.83;;;;;;;30.56;44.99;101089.23;1947370;73;21259;-65
2021/09/14 06:43:24;;;;;;;8.87;3.50;;;;;;;30.76;44.00;101084.97;1946879;74;21177;-65
2021/09/14 06:45:55;;;;;;;14.70;4.40;;;;;;;30.96;43.65;101094.84;1941443;74;21071;-65
2021/09/14 06:48:25;;;;;;;11.20;3.52;;;;;;;30.85;42.16;101092.54;1946030;74;21208;-65
2021/09/14 06:50:54;;;;;;;8.73;3.60;;;;;;;30.86;42.59;101090.16;1947558;74;21007;-65
2021/09/14 06:53:23;;;;;;;15.25;3.87;;;;;;;30.82;41.59;101093.42;1947369;74;21573;-65
2021/09/14 06:55:52;;;;;;;11.18;3.20;;;;;;;31.06;41.60;101085.56;1947387;74;21474;-65
2021/09/14 06:58:21;;;;;;;9.98;4.08;;;;;;;31.21;40.16;101089.64;1947493;74;21519;-65
2021/09/14 07:00:49;;;;;;;8.28;3.27;;;;;;;31.50;40.07;101086.10;1947483;74;21149;-65
2021/09/14 07:03:18;;;;;;;13.13;3.87;;;;;;;31.83;39.66;101085.67;1947606;74;21087;-65
2021/09/14 07:05:47;;;;;;;12.55;3.60;;;;;;;31.91;38.53;101078.24;1947575;74;21023;-65
2021/09/14 07:08:16;;;;;;;9.13;3.52;;;;;;;31.99;38.49;101081.89;1947323;74;21000;-65
2021/09/14 07:10:45;;;;;;;9.93;3.90;;;;;;;31.96;37.95;101071.37;1947615;74;21035;-65
2021/09/14 07:13:14;;;;;;;13.48;3.35;;;;;;;31.83;38.37;101074.26;1947353;74;21028;-65
2021/09/14 07:15:43;;;;;;;10.18;3.47;;;;;;;31.90;38.60;101078.42;1947450;74;21023;-65
2021/09/14 07:18:11;;;;;;;10.08;3.62;;;;;;;32.23;37.90;101079.33;1947333;74;21031;-65
2021/09/14 07:20:40;;;;;;;8.70;3.80;;;;;;;32.74;37.80;101074.23;1947351;74;21109;-65
2021/09/14 07:23:08;;;;;;;10.05;3.75;;;;;;;32.95;37.34;101074.19;1947448;74;21047;-65
2021/09/14 07:25:42;;;;;;;8.53;3.65;;;;;;;33.03;36.98;101076.74;1947443;73;21112;-64
2021/09/14 07:28:08;;;;;;;11.93;3.62;;;;;;;33.04;36.89;101070.26;1946202;74;21303;-64
2021/09/14 07:30:38;;;;;;;8.63;3.55;;;;;;;33.18;36.10;101068.50;1947374;74;21492;-65
2021/09/14 07:33:07;;;;;;;10.88;3.80;;;;;;;32.98;35.03;101073.80;1947490;73;21031;-65
2021/09/14 07:35:36;;;;;;;7.08;3.22;;;;;;;33.02;35.43;101068.25;1947513;74;21039;-65
2021/09/14 07:38:05;;;;;;;12.88;4.03;;;;;;;33.25;35.61;101065.78;1947375;74;21059;-65
2021/09/14 07:40:34;;;;;;;10.85;3.92;;;;;;;33.59;35.63;101064.07;1947381;73;21101;-65
2021/09/14 07:43:03;;;;;;;12.95;3.60;;;;;;;34.04;35.20;101064.42;1947303;73;21517;-65
2021/09/14 07:45:32;;;;;;;9.93;3.45;;;;;;;33.88;33.83;101065.64;1947342;73;21480;-65
2021/09/14 07:48:01;;;;;;;11.88;3.55;;;;;;;33.74;34.25;101070.23;1947352;74;21071;-65
2021/09/14 07:50:30;;;;;;;10.63;4.05;;;;;;;33.55;34.56;101060.91;1947327;74;21012;-64
2021/09/14 07:52:59;;;;;;;7.65;4.00;;;;;;;33.64;34.38;101054.72;1947484;74;21067;-65
2021/09/14 07:55:28;;;;;;;8.45;3.95;;;;;;;33.76;34.78;101051.75;1947385;74;21047;-64
2021/09/14 07:57:56;;;;;;;7.85;3.45;;;;;;;34.08;34.71;101049.30;1947288;74;21578;-65
2021/09/14 08:00:25;;;;;;;9.30;3.70;;;;;;;34.21;34.33;101053.47;1947356;74;21056;-64
2021/09/14 08:02:55;;;;;;;6.72;3.77;;;;;;;34.30;34.13;101054.61;1947355;74;21519;-64
2021/09/14 08:05:25;;;;;;;7.80;3.95;;;;;;;34.65;33.75;101048.93;1947454;74;21027;-64
2021/09/14 08:07:54;;;;;;;8.08;3.47;;;;;;;34.88;32.90;101042.52;1947446;74;21077;-65
2021/09/14 08:10:23;;;;;;;6.42;2.98;;;;;;;34.93;33.19;101041.33;1947200;74;20995;-65
2021/09/14 08:12:52;;;;;;;9.50;3.50;;;;;;;34.95;32.96;101043.84;1947322;74;21019;-65
2021/09/14 08:15:20;;;;;;;8.50;3.35;;;;;;;35.06;33.65;101043.72;1947453;74;21039;-65
2021/09/14 08:17:49;;;;;;;9.58;3.25;;;;;;;35.18;33.42;101040.64;1947342;74;21560;-65
2021/09/14 08:20:18;;;;;;;11.90;4.35;;;;;;;35.44;32.75;101038.89;1947352;74;21474;-65
2021/09/14 08:22:47;;;;;;;7.30;3.10;;;;;;;35.80;32.84;101031.98;1947239;74;21116;-65
2021/09/14 08:25:15;;;;;;;7.05;3.50;;;;;;;36.09;32.29;101038.20;1947312;74;21109;-65
2021/09/14 08:27:44;;;;;;;3.60;2.72;;;;;;;36.18;31.66;101029.73;1947526;74;21454;-65
2021/09/14 08:30:14;;;;;;;8.25;3.35;;;;;;;36.38;31.62;101031.80;1947320;74;21540;-65
2021/09/14 08:32:43;;;;;;;7.35;3.25;;;;;;;36.46;30.40;101027.39;1947480;74;21008;-64
2021/09/14 08:35:12;;;;;;;6.58;3.27;;;;;;;36.53;30.30;101032.28;1947278;74;21023;-65
2021/09/14 08:37:41;;;;;;;3.95;2.85;;;;;;;35.50;29.98;101009.27;1947319;74;21540;-65
2021/09/14 08:40:11;;;;;;;8.95;3.37;;;;;;;35.50;29.98;101009.27;1947446;74;21043;-65
2021/09/14 08:42:39;;;;;;;5.60;2.75;;;;;;;35.59;30.59;101029.86;1947258;73;21137;-65
2021/09/14 08:45:10;;;;;;;6.05;3.42;;;;;;;35.20;31.07;101035.82;1947552;74;21540;-65
2021/09/14 08:47:39;;;;;;;7.15;3.45;;;;;;;35.26;31.48;101034.95;1947236;74;21082;-67
2021/09/14 08:50:10;;;;;;;7.80;3.72;;;;;;;35.14;31.96;101018.88;1947255;74;21610;-65
2021/09/14 08:52:39;;;;;;;5.53;2.98;;;;;;;35.40;32.12;101026.70;1947304;74;21095;-65
2021/09/14 08:55:09;;;;;;;8.58;2.80;;;;;;;35.67;31.58;101020.54;1947411;73;21008;-66
2021/09/14 08:57:38;;;;;;;4.20;2.67;;;;;;;35.62;30.28;101027.20;1947570;74;21037;-66
2021/09/14 09:00:08;;;;;;;5.35;2.65;;;;;;;35.62;30.68;101022.58;1947327;74;21007;-66
2021/09/14 09:02:36;;;;;;;6.83;3.00;;;;;;;35.71;30.23;101019.06;1947367;74;21098;-66
2021/09/14 09:05:06;;;;;;;5.67;3.12;;;;;;;35.68;30.62;101020.33;1947370;74;21059;-66
2021/09/14 09:07:37;;;;;;;7.80;3.00;;;;;;;35.68;30.62;101020.33;1947532;74;21024;-66
2021/09/14 09:10:16;;;;;;;8.28;3.25;;;;;;;36.22;30.03;101022.22;1947290;74;21023;-66
2021/09/14 09:12:47;;;;;;;5.80;3.22;;;;;;;36.22;30.03;101022.22;1947267;73;21040;-66
2021/09/14 09:15:38;;;;;;;7.22;2.70;;;;;;;36.57;30.04;101013.48;1947607;74;21470;-66
2021/09/14 09:18:13;;;;;;;4.75;2.85;;;;;;;36.52;29.28;101005.08;1946296;74;21063;-65
2021/09/14 09:20:44;;;;;;;5.80;2.98;;;;;;;36.52;29.28;101005.08;1947309;74;21081;-66
2021/09/14 09:23:16;;;;;;;6.35;2.87;;;;;;;36.33;28.64;101012.44;1947186;74;21055;-67
2021/09/14 09:25:45;;;;;;;5.53;2.72;;;;;;;36.36;29.15;101013.91;1947048;74;21031;-66
2021/09/14 09:28:18;;;;;;;6.67;2.60;;;;;;;36.48;28.71;101019.80;1947324;74;21030;-66
2021/09/14 09:30:55;;;;;;;8.33;3.00;;;;;;;36.47;29.34;101009.89;1947023;74;21024;-66
2021/09/14 09:33:26;;;;;;;8.28;3.10;;;;;;;36.47;29.34;101009.89;1947277;74;21027;-66
2021/09/14 09:36:04;;;;;;;5.58;3.15;;;;;;;36.77;28.88;101013.31;1947232;74;21027;-66
2021/09/14 09:38:34;;;;;;;4.85;2.60;;;;;;;36.61;28.29;101008.38;1947477;74;21109;-66
2021/09/14 09:41:03;;;;;;;4.53;2.62;;;;;;;36.14;28.63;101016.45;1945056;74;21132;-66
2021/09/14 09:43:33;;;;;;;5.87;2.67;;;;;;;35.79;28.71;101013.34;1951512;73;21152;-66
2021/09/14 09:46:10;;;;;;;3.02;2.27;;;;;;;35.47;29.19;101009.69;1952995;73;21486;-67
2021/09/14 09:48:39;;;;;;;7.20;3.10;;;;;;;34.99;30.39;101013.13;1953043;73;21031;-66
2021/09/14 09:51:08;;;;;;;5.62;2.80;;;;;;;34.99;30.39;101013.13;1952906;73;21047;-66
2021/09/14 09:53:38;;;;;;;8.30;2.10;;;;;;;35.31;30.11;101020.09;1952928;73;21128;-66
2021/09/14 09:56:08;;;;;;;7.30;2.42;;;;;;;35.16;29.16;101017.59;1952908;73;21117;-66
2021/09/14 09:58:37;;;;;;;7.10;2.72;;;;;;;35.12;28.70;101007.28;1952824;73;21055;-67
2021/09/14 10:01:14;;;;;;;3.62;2.27;;;;;;;35.00;28.79;101018.89;1953016;73;21535;-66
2021/09/14 10:04:03;;;;;;;6.42;2.65;;;;;;;34.42;29.13;101020.14;1953017;73;21116;-66
2021/09/14 10:06:33;;;;;;;5.53;3.00;;;;;;;33.68;30.34;101015.09;1952940;73;21043;-66
2021/09/14 10:09:03;;;;;;;5.92;2.67;;;;;;;33.13;32.06;101017.78;1952643;73;21469;-66
2021/09/14 10:11:35;;;;;;;5.40;2.95;;;;;;;33.49;32.04;101022.66;1952978;73;21035;-66
2021/09/14 10:14:11;;;;;;;3.58;2.62;;;;;;;33.59;30.51;101022.59;1952864;73;21039;-66
2021/09/14 10:16:45;;;;;;;8.58;3.08;;;;;;;33.43;30.88;101018.32;1952887;73;21066;-66
2021/09/14 10:19:35;;;;;;;5.35;2.65;;;;;;;33.35;30.78;101019.87;1952855;73;21003;-66
2021/09/14 10:22:06;;;;;;;4.80;2.60;;;;;;;33.46;30.57;101023.38;1950916;73;21167;-66
2021/09/14 10:24:36;;;;;;;3.47;2.45;;;;;;;33.95;30.71;101019.23;1951477;73;21461;-66
2021/09/14 10:27:08;;;;;;;4.05;2.55;;;;;;;34.17;29.81;101022.66;1952970;73;21047;-66
2021/09/14 10:29:38;;;;;;;4.17;2.60;;;;;;;33.99;30.13;101017.26;1953264;73;21027;-66
2021/09/14 10:32:09;;;;;;;4.62;2.37;;;;;;;33.89;29.54;101015.97;1952884;73;21462;-66
2021/09/14 10:34:45;;;;;;;4.80;2.12;;;;;;;33.84;29.35;101014.68;1953198;73;21008;-66
2021/09/14 10:37:15;;;;;;;4.80;2.37;;;;;;;33.67;29.54;101009.30;1952996;73;21109;-66
2021/09/14 10:39:46;;;;;;;3.00;2.70;;;;;;;33.75;29.76;101009.63;1952851;73;21117;-66
2021/09/14 10:42:23;;;;;;;3.62;2.22;;;;;;;33.88;30.21;101008.81;1952823;73;21457;-66
2021/09/14 10:44:54;;;;;;;4.12;2.58;;;;;;;34.07;29.43;101009.38;1952947;73;21122;-66
2021/09/14 10:47:24;;;;;;;6.03;3.10;;;;;;;34.25;29.89;101016.13;1953153;73;21027;-66
2021/09/14 10:49:59;;;;;;;7.40;3.25;;;;;;;33.82;30.63;101011.31;1952947;73;21019;-66
2021/09/14 10:52:43;;;;;;;4.80;2.62;;;;;;;32.91;31.29;101012.91;1952870;73;21089;-66
2021/09/14 10:55:18;;;;;;;4.65;3.02;;;;;;;32.00;32.29;101010.89;1952800;73;21023;-66
2021/09/14 10:57:49;;;;;;;5.67;2.55;;;;;;;31.89;33.04;101006.80;1952854;73;21498;-66
2021/09/14 11:00:20;;;;;;;4.62;2.50;;;;;;;31.67;33.26;101007.30;1952861;73;21035;-66
2021/09/14 11:03:06;;;;;;;10.10;3.05;;;;;;;31.44;33.21;101001.97;1951892;73;21490;-66
2021/09/14 11:05:37;;;;;;;5.10;2.50;;;;;;;31.53;34.20;101002.21;1952898;73;21102;-66
2021/09/14 11:08:09;;;;;;;4.30;2.75;;;;;;;31.77;33.55;101001.53;1952842;73;21027;-66
2021/09/14 11:10:43;;;;;;;6.90;2.35;;;;;;;31.91;33.75;101000.64;1952944;73;21000;-66
2021/09/14 11:13:20;;;;;;;5.20;2.22;;;;;;;31.94;34.10;100994.78;1952839;73;21062;-66
2021/09/14 11:15:50;;;;;;;3.12;2.37;;;;;;;31.97;33.83;100988.66;1952508;73;21055;-66
2021/09/14 11:18:24;;;;;;;5.53;2.50;;;;;;;31.92;34.41;100988.69;1952043;73;21055;-66
2021/09/14 11:20:59;;;;;;;4.12;2.12;;;;;;;31.81;33.77;100990.58;1952273;73;21497;-66
2021/09/14 11:23:28;;;;;;;6.05;2.30;;;;;;;31.51;33.81;100982.52;1946404;73;21039;-66
2021/09/14 11:25:58;;;;;;;3.30;2.05;;;;;;;31.05;34.42;100983.28;1952811;73;21117;-66
2021/09/14 11:28:27;;;;;;;3.77;2.17;;;;;;;30.61;34.92;100980.84;1952837;73;21047;-66
2021/09/14 11:31:01;;;;;;;4.45;2.42;;;;;;;30.31;35.73;100987.55;1952931;73;21539;-66
2021/09/14 11:33:31;;;;;;;3.05;2.10;;;;;;;30.16;35.89;100990.75;1952985;73;20995;-66
2021/09/14 11:36:02;;;;;;;3.80;2.37;;;;;;;29.95;36.72;100985.46;1952993;73;21462;-66
2021/09/14 11:38:31;;;;;;;5.08;2.20;;;;;;;29.67;36.93;100980.22;1952995;73;21101;-66
2021/09/14 11:41:02;;;;;;;7.05;2.42;;;;;;;29.35;37.17;100987.53;1952882;73;21663;-67
2021/09/14 11:43:33;;;;;;;4.47;2.40;;;;;;;29.13;37.74;100976.41;1952975;73;21105;-66
2021/09/14 11:46:13;;;;;;;3.65;2.52;;;;;;;28.92;38.52;100980.20;1952980;73;21593;-66
2021/09/14 11:48:42;;;;;;;6.10;2.25;;;;;;;28.87;39.31;100982.93;1952715;73;21156;-66
2021/09/14 11:51:13;;;;;;;5.05;2.50;;;;;;;28.77;37.72;100983.63;1952943;73;21513;-67
2021/09/14 11:53:45;;;;;;;5.08;2.00;;;;;;;28.57;38.74;100980.96;1953086;73;20995;-66
2021/09/14 11:56:15;;;;;;;3.12;2.58;;;;;;;28.54;39.22;100984.88;1952875;73;21055;-66
2021/09/14 11:58:47;;;;;;;3.72;2.10;;;;;;;28.52;39.39;100988.75;1953050;73;21019;-66
2021/09/14 12:01:18;;;;;;;2.72;1.90;;;;;;;28.37;39.17;100985.86;1952981;73;21063;-67
2021/09/14 12:03:51;;;;;;;3.35;1.95;;;;;;;28.20;39.32;100989.96;1952855;73;21027;-67
2021/09/14 12:06:28;;;;;;;5.00;2.08;;;;;;;28.20;39.58;100990.44;1953150;73;21023;-66
2021/09/14 12:09:01;;;;;;;4.30;2.12;;;;;;;28.10;39.26;100990.11;1953008;73;20996;-66
2021/09/14 12:11:35;;;;;;;6.50;2.05;;;;;;;27.94;39.84;100986.03;1953064;73;21047;-66
2021/09/14 12:14:10;;;;;;;4.00;2.22;;;;;;;27.95;40.02;100990.44;1953005;73;21027;-66
2021/09/14 12:16:40;;;;;;;3.37;1.90;;;;;;;27.90;39.66;100992.80;1953082;73;21485;-66
2021/09/14 12:19:10;;;;;;;6.62;2.10;;;;;;;27.85;39.95;100997.83;1953051;73;20999;-66
2021/09/14 12:21:39;;;;;;;6.67;2.27;;;;;;;27.90;40.36;100994.16;1953095;73;21015;-67
2021/09/14 12:24:08;;;;;;;3.05;1.82;;;;;;;27.86;40.04;100991.41;1952940;73;21050;-66
2021/09/14 12:26:42;;;;;;;3.08;1.90;;;;;;;27.69;40.58;100995.44;1952798;73;21031;-67